sensor_id;sensor_type;location;lat;lon;timestamp;pressure;altitude;pressure_sealevel;temperature;humidity
35443;BME280;21561;55.654;37.592;2023-05-19T00:01:17;99910.81;;;15.19;92.98
35443;BME280;21561;55.654;37.592;2023-05-19T00:03:49;99924.00;;;15.13;93.48
35443;BME280;21561;55.654;37.592;2023-05-19T00:06:26;99924.16;;;15.06;94.10
35443;BME280;21561;55.654;37.592;2023-05-19T00:09:01;99928.63;;;15.00;94.16
35443;BME280;21561;55.654;37.592;2023-05-19T00:11:29;99920.81;;;14.98;94.37
35443;BME280;21561;55.654;37.592;2023-05-19T00:13:58;99932.25;;;14.94;95.53
35443;BME280;21561;55.654;37.592;2023-05-19T00:16:26;99929.63;;;14.94;95.64
35443;BME280;21561;55.654;37.592;2023-05-19T00:18:54;99935.72;;;14.95;95.60
35443;BME280;21561;55.654;37.592;2023-05-19T00:21:22;99933.16;;;14.93;95.65
35443;BME280;21561;55.654;37.592;2023-05-19T00:23:49;99935.00;;;14.88;96.31
35443;BME280;21561;55.654;37.592;2023-05-19T00:26:17;99940.28;;;14.85;96.51
35443;BME280;21561;55.654;37.592;2023-05-19T00:28:44;99945.56;;;14.82;96.38
35443;BME280;21561;55.654;37.592;2023-05-19T00:31:10;99947.38;;;14.77;96.97
35443;BME280;21561;55.654;37.592;2023-05-19T00:33:37;99950.00;;;14.77;96.77
35443;BME280;21561;55.654;37.592;2023-05-19T00:36:04;99940.56;;;14.69;97.68
35443;BME280;21561;55.654;37.592;2023-05-19T00:38:33;99961.53;;;14.66;98.13
35443;BME280;21561;55.654;37.592;2023-05-19T00:41:01;99963.56;;;14.49;99.31
35443;BME280;21561;55.654;37.592;2023-05-19T00:43:28;99959.41;;;14.37;99.50
35443;BME280;21561;55.654;37.592;2023-05-19T00:45:56;99959.72;;;14.20;100.00
35443;BME280;21561;55.654;37.592;2023-05-19T00:48:24;99952.84;;;14.15;100.00
35443;BME280;21561;55.654;37.592;2023-05-19T00:50:56;99959.88;;;14.09;100.00
35443;BME280;21561;55.654;37.592;2023-05-19T00:53:33;99964.28;;;14.06;100.00
35443;BME280;21561;55.654;37.592;2023-05-19T00:56:01;99964.34;;;14.03;100.00
35443;BME280;21561;55.654;37.592;2023-05-19T00:58:29;99954.81;;;14.00;100.00
35443;BME280;21561;55.654;37.592;2023-05-19T01:00:58;99966.25;;;13.93;100.00
35443;BME280;21561;55.654;37.592;2023-05-19T01:03:34;99964.53;;;13.90;100.00
35443;BME280;21561;55.654;37.592;2023-05-19T01:06:02;99968.03;;;13.89;100.00
35443;BME280;21561;55.654;37.592;2023-05-19T01:08:34;99967.09;;;13.93;100.00
35443;BME280;21561;55.654;37.592;2023-05-19T01:11:02;99964.50;;;13.93;100.00
35443;BME280;21561;55.654;37.592;2023-05-19T01:13:29;99973.28;;;13.86;100.00
35443;BME280;21561;55.654;37.592;2023-05-19T01:18:40;99968.06;;;13.86;99.92
35443;BME280;21561;55.654;37.592;2023-05-19T01:21:29;99968.94;;;13.87;99.11
35443;BME280;21561;55.654;37.592;2023-05-19T01:24:49;99974.09;;;13.91;98.16
35443;BME280;21561;55.654;37.592;2023-05-19T01:30:27;99980.38;;;13.78;99.28
35443;BME280;21561;55.654;37.592;2023-05-19T01:33:00;99972.69;;;13.67;100.00
35443;BME280;21561;55.654;37.592;2023-05-19T01:35:28;99977.16;;;13.61;100.00
35443;BME280;21561;55.654;37.592;2023-05-19T01:37:57;99978.03;;;13.58;100.00
35443;BME280;21561;55.654;37.592;2023-05-19T01:40:25;99972.84;;;13.58;100.00
35443;BME280;21561;55.654;37.592;2023-05-19T01:42:55;99982.44;;;13.54;100.00
35443;BME280;21561;55.654;37.592;2023-05-19T01:45:24;99984.25;;;13.49;100.00
35443;BME280;21561;55.654;37.592;2023-05-19T01:47:54;99985.19;;;13.44;100.00
35443;BME280;21561;55.654;37.592;2023-05-19T01:50:22;100004.47;;;13.32;100.00
35443;BME280;21561;55.654;37.592;2023-05-19T01:52:49;99998.50;;;13.21;100.00
35443;BME280;21561;55.654;37.592;2023-05-19T01:55:16;99993.38;;;13.14;100.00
35443;BME280;21561;55.654;37.592;2023-05-19T01:58:07;100008.19;;;13.09;100.00
35443;BME280;21561;55.654;37.592;2023-05-19T02:09:14;100006.13;;;12.60;100.00
35443;BME280;21561;55.654;37.592;2023-05-19T02:14:17;100008.94;;;12.37;100.00
35443;BME280;21561;55.654;37.592;2023-05-19T02:16:47;100004.69;;;12.23;100.00
35443;BME280;21561;55.654;37.592;2023-05-19T02:19:22;100012.56;;;12.17;100.00
35443;BME280;21561;55.654;37.592;2023-05-19T02:21:49;100017.91;;;11.99;100.00
35443;BME280;21561;55.654;37.592;2023-05-19T02:24:17;100020.53;;;11.88;100.00
35443;BME280;21561;55.654;37.592;2023-05-19T02:26:44;100008.47;;;11.78;100.00
35443;BME280;21561;55.654;37.592;2023-05-19T02:29:11;100035.44;;;11.60;98.50
35443;BME280;21561;55.654;37.592;2023-05-19T02:31:37;100020.75;;;11.51;98.45
35443;BME280;21561;55.654;37.592;2023-05-19T02:34:04;100035.53;;;11.38;96.94
35443;BME280;21561;55.654;37.592;2023-05-19T02:36:32;100032.13;;;11.25;96.86
35443;BME280;21561;55.654;37.592;2023-05-19T02:39:01;100032.13;;;11.18;96.30
35443;BME280;21561;55.654;37.592;2023-05-19T02:41:28;100038.22;;;11.11;95.87
35443;BME280;21561;55.654;37.592;2023-05-19T02:43:55;100055.53;;;11.07;94.32
35443;BME280;21561;55.654;37.592;2023-05-19T02:46:21;100041.72;;;10.99;93.80
35443;BME280;21561;55.654;37.592;2023-05-19T02:48:49;100050.38;;;10.98;93.08
35443;BME280;21561;55.654;37.592;2023-05-19T02:51:16;100048.66;;;10.95;92.90
35443;BME280;21561;55.654;37.592;2023-05-19T02:53:43;100053.84;;;10.94;93.16
35443;BME280;21561;55.654;37.592;2023-05-19T02:56:10;100047.78;;;10.95;93.38
35443;BME280;21561;55.654;37.592;2023-05-19T02:58:37;100051.25;;;10.98;92.64
35443;BME280;21561;55.654;37.592;2023-05-19T03:01:04;100045.16;;;11.01;91.46
35443;BME280;21561;55.654;37.592;2023-05-19T03:03:31;100049.50;;;10.99;90.96
35443;BME280;21561;55.654;37.592;2023-05-19T03:05:58;100050.38;;;10.98;90.97
35443;BME280;21561;55.654;37.592;2023-05-19T03:08:25;100051.25;;;10.95;90.32
35443;BME280;21561;55.654;37.592;2023-05-19T03:10:52;100052.09;;;10.96;90.65
35443;BME280;21561;55.654;37.592;2023-05-19T03:13:19;100061.59;;;11.00;90.94
35443;BME280;21561;55.654;37.592;2023-05-19T03:15:45;100059.88;;;11.06;90.16
35443;BME280;21561;55.654;37.592;2023-05-19T03:18:13;100060.72;;;11.10;89.83
35443;BME280;21561;55.654;37.592;2023-05-19T03:20:39;100070.25;;;11.08;89.67
35443;BME280;21561;55.654;37.592;2023-05-19T03:23:08;100069.41;;;11.06;89.18
35443;BME280;21561;55.654;37.592;2023-05-19T03:25:35;100072.84;;;11.05;89.30
35443;BME280;21561;55.654;37.592;2023-05-19T03:28:02;100062.50;;;11.02;88.21
35443;BME280;21561;55.654;37.592;2023-05-19T03:30:28;100077.22;;;10.98;87.92
35443;BME280;21561;55.654;37.592;2023-05-19T03:32:56;100084.16;;;10.95;88.28
35443;BME280;21561;55.654;37.592;2023-05-19T03:35:23;100077.22;;;10.95;88.39
35443;BME280;21561;55.654;37.592;2023-05-19T03:37:49;100082.41;;;10.98;88.27
35443;BME280;21561;55.654;37.592;2023-05-19T03:40:16;100082.41;;;10.94;87.79
35443;BME280;21561;55.654;37.592;2023-05-19T03:42:45;100085.00;;;10.92;88.13
35443;BME280;21561;55.654;37.592;2023-05-19T03:45:11;100085.00;;;10.94;88.31
35443;BME280;21561;55.654;37.592;2023-05-19T03:47:38;100093.66;;;10.93;89.00
35443;BME280;21561;55.654;37.592;2023-05-19T03:50:05;100086.75;;;10.95;89.39
35443;BME280;21561;55.654;37.592;2023-05-19T03:52:32;100093.66;;;10.93;90.07
35443;BME280;21561;55.654;37.592;2023-05-19T03:54:59;100091.94;;;10.88;90.58
35443;BME280;21561;55.654;37.592;2023-05-19T03:57:26;100091.91;;;10.85;90.77
35443;BME280;21561;55.654;37.592;2023-05-19T03:59:54;100100.59;;;10.81;91.02
35443;BME280;21561;55.654;37.592;2023-05-19T04:02:21;100103.22;;;10.77;91.50
35443;BME280;21561;55.654;37.592;2023-05-19T04:04:48;100106.66;;;10.73;92.44
35443;BME280;21561;55.654;37.592;2023-05-19T04:07:16;100117.91;;;10.76;92.75
35443;BME280;21561;55.654;37.592;2023-05-19T04:09:43;100113.59;;;10.74;92.45
35443;BME280;21561;55.654;37.592;2023-05-19T04:12:11;100104.94;;;10.70;93.08
35443;BME280;21561;55.654;37.592;2023-05-19T04:14:37;100107.53;;;10.67;93.87
35443;BME280;21561;55.654;37.592;2023-05-19T04:17:04;100104.06;;;10.68;94.22
35443;BME280;21561;55.654;37.592;2023-05-19T04:19:31;100109.25;;;10.65;95.04
35443;BME280;21561;55.654;37.592;2023-05-19T04:21:58;100114.44;;;10.62;95.30
35443;BME280;21561;55.654;37.592;2023-05-19T04:24:25;100105.81;;;10.66;94.96
35443;BME280;21561;55.654;37.592;2023-05-19T04:26:51;100109.25;;;10.65;95.57
35443;BME280;21561;55.654;37.592;2023-05-19T04:29:19;100104.06;;;10.62;95.33
35443;BME280;21561;55.654;37.592;2023-05-19T04:31:46;100105.81;;;10.63;95.51
35443;BME280;21561;55.654;37.592;2023-05-19T04:34:12;100105.81;;;10.63;95.87
35443;BME280;21561;55.654;37.592;2023-05-19T04:36:39;100110.97;;;10.69;95.21
35443;BME280;21561;55.654;37.592;2023-05-19T04:39:07;100108.38;;;10.67;94.86
35443;BME280;21561;55.654;37.592;2023-05-19T04:41:36;100119.63;;;10.65;95.69
35443;BME280;21561;55.654;37.592;2023-05-19T04:44:06;100112.72;;;10.70;95.87
35443;BME280;21561;55.654;37.592;2023-05-19T04:46:34;100117.91;;;10.73;95.10
35443;BME280;21561;55.654;37.592;2023-05-19T04:49:01;100125.69;;;10.68;94.84
35443;BME280;21561;55.654;37.592;2023-05-19T04:51:28;100124.84;;;10.68;95.25
35443;BME280;21561;55.654;37.592;2023-05-19T04:53:57;100119.63;;;10.65;95.45
35443;BME280;21561;55.654;37.592;2023-05-19T04:56:23;100123.09;;;10.61;95.29
35443;BME280;21561;55.654;37.592;2023-05-19T04:58:52;100113.56;;;10.60;96.10
35443;BME280;21561;55.654;37.592;2023-05-19T05:01:19;100123.09;;;10.61;96.30
35443;BME280;21561;55.654;37.592;2023-05-19T05:03:51;100122.25;;;10.68;95.40
35443;BME280;21561;55.654;37.592;2023-05-19T05:06:21;100123.09;;;10.58;97.40
35443;BME280;21561;55.654;37.592;2023-05-19T05:08:48;100123.09;;;10.55;96.59
35443;BME280;21561;55.654;37.592;2023-05-19T05:11:16;100124.81;;;10.51;96.67
35443;BME280;21561;55.654;37.592;2023-05-19T05:13:43;100121.34;;;10.50;96.60
35443;BME280;21561;55.654;37.592;2023-05-19T05:16:11;100131.72;;;10.47;96.02
35443;BME280;21561;55.654;37.592;2023-05-19T05:18:38;100139.50;;;10.44;95.79
35443;BME280;21561;55.654;37.592;2023-05-19T05:21:08;100137.78;;;10.46;96.22
35443;BME280;21561;55.654;37.592;2023-05-19T05:23:35;100142.13;;;10.41;96.94
35443;BME280;21561;55.654;37.592;2023-05-19T05:26:08;100143.81;;;10.42;97.71
35443;BME280;21561;55.654;37.592;2023-05-19T05:28:35;100141.22;;;10.42;98.83
35443;BME280;21561;55.654;37.592;2023-05-19T05:31:02;100152.50;;;10.41;98.99
35443;BME280;21561;55.654;37.592;2023-05-19T05:33:29;100152.50;;;10.41;98.90
35443;BME280;21561;55.654;37.592;2023-05-19T05:35:55;100147.31;;;10.41;99.02
35443;BME280;21561;55.654;37.592;2023-05-19T05:38:22;100152.50;;;10.41;99.22
35443;BME280;21561;55.654;37.592;2023-05-19T05:40:49;100154.22;;;10.39;99.66
35443;BME280;21561;55.654;37.592;2023-05-19T05:43:16;100155.91;;;10.39;100.00
35443;BME280;21561;55.654;37.592;2023-05-19T05:45:43;100161.13;;;10.43;100.00
35443;BME280;21561;55.654;37.592;2023-05-19T05:48:10;100158.53;;;10.45;100.00
35443;BME280;21561;55.654;37.592;2023-05-19T05:50:37;100161.13;;;10.49;100.00
35443;BME280;21561;55.654;37.592;2023-05-19T05:53:05;100162.88;;;10.54;100.00
35443;BME280;21561;55.654;37.592;2023-05-19T05:55:33;100162.00;;;10.55;100.00
35443;BME280;21561;55.654;37.592;2023-05-19T05:58:00;100155.09;;;10.61;100.00
35443;BME280;21561;55.654;37.592;2023-05-19T06:00:27;100159.44;;;10.73;100.00
35443;BME280;21561;55.654;37.592;2023-05-19T06:02:55;100168.09;;;10.75;99.32
35443;BME280;21561;55.654;37.592;2023-05-19T06:05:22;100171.56;;;10.77;98.88
35443;BME280;21561;55.654;37.592;2023-05-19T06:07:50;100171.56;;;10.80;98.73
35443;BME280;21561;55.654;37.592;2023-05-19T06:10:17;100168.94;;;10.82;98.34
35443;BME280;21561;55.654;37.592;2023-05-19T06:12:45;100164.63;;;10.88;99.21
35443;BME280;21561;55.654;37.592;2023-05-19T06:15:12;100162.88;;;11.00;98.83
35443;BME280;21561;55.654;37.592;2023-05-19T06:17:38;100155.97;;;11.05;97.73
35443;BME280;21561;55.654;37.592;2023-05-19T06:20:06;100165.50;;;11.09;96.95
35443;BME280;21561;55.654;37.592;2023-05-19T06:22:34;100173.25;;;11.11;96.91
35443;BME280;21561;55.654;37.592;2023-05-19T06:25:01;100165.47;;;11.11;96.50
35443;BME280;21561;55.654;37.592;2023-05-19T06:27:29;100158.56;;;11.13;95.15
35443;BME280;21561;55.654;37.592;2023-05-19T06:30:00;100166.34;;;11.11;95.83
35443;BME280;21561;55.654;37.592;2023-05-19T06:32:27;100150.75;;;11.14;96.48
35443;BME280;21561;55.654;37.592;2023-05-19T06:34:55;100159.41;;;11.19;95.80
35443;BME280;21561;55.654;37.592;2023-05-19T06:37:22;100160.25;;;11.38;94.58
35443;BME280;21561;55.654;37.592;2023-05-19T06:39:52;100162.84;;;11.40;93.67
35443;BME280;21561;55.654;37.592;2023-05-19T06:42:19;100162.84;;;11.37;93.25
35443;BME280;21561;55.654;37.592;2023-05-19T06:44:48;100174.09;;;11.40;93.53
35443;BME280;21561;55.654;37.592;2023-05-19T06:47:16;100168.00;;;11.46;92.81
35443;BME280;21561;55.654;37.592;2023-05-19T06:49:43;100166.28;;;11.51;92.28
35443;BME280;21561;55.654;37.592;2023-05-19T06:52:10;100169.72;;;11.53;91.62
35443;BME280;21561;55.654;37.592;2023-05-19T06:54:37;100164.50;;;11.65;91.81
35443;BME280;21561;55.654;37.592;2023-05-19T06:57:04;100178.31;;;11.78;90.75
35443;BME280;21561;55.654;37.592;2023-05-19T06:59:31;100166.16;;;11.85;90.11
35443;BME280;21561;55.654;37.592;2023-05-19T07:01:58;100173.06;;;11.98;89.53
35443;BME280;21561;55.654;37.592;2023-05-19T07:04:25;100166.06;;;12.11;88.96
35443;BME280;21561;55.654;37.592;2023-05-19T07:06:52;100179.91;;;12.18;88.32
35443;BME280;21561;55.654;37.592;2023-05-19T07:09:20;100178.16;;;12.26;88.19
35443;BME280;21561;55.654;37.592;2023-05-19T07:11:47;100174.63;;;12.30;87.39
35443;BME280;21561;55.654;37.592;2023-05-19T07:14:14;100162.53;;;12.29;87.22
35443;BME280;21561;55.654;37.592;2023-05-19T07:16:41;100172.88;;;12.34;87.17
35443;BME280;21561;55.654;37.592;2023-05-19T07:19:08;100178.94;;;12.40;85.98
35443;BME280;21561;55.654;37.592;2023-05-19T07:21:35;100162.47;;;12.35;85.83
35443;BME280;21561;55.654;37.592;2023-05-19T07:24:01;100177.22;;;12.33;85.43
35443;BME280;21561;55.654;37.592;2023-05-19T07:26:28;100171.97;;;12.39;85.48
35443;BME280;21561;55.654;37.592;2023-05-19T07:28:58;100172.81;;;12.48;85.36
35443;BME280;21561;55.654;37.592;2023-05-19T07:31:28;100170.97;;;12.62;85.46
35443;BME280;21561;55.654;37.592;2023-05-19T07:33:56;100176.09;;;12.71;84.76
35443;BME280;21561;55.654;37.592;2023-05-19T07:36:22;100170.91;;;12.71;82.70
35443;BME280;21561;55.654;37.592;2023-05-19T07:38:49;100173.44;;;12.77;81.55
35443;BME280;21561;55.654;37.592;2023-05-19T07:41:16;100170.88;;;12.74;80.34
35443;BME280;21561;55.654;37.592;2023-05-19T07:43:43;100169.13;;;12.76;80.95
35443;BME280;21561;55.654;37.592;2023-05-19T07:46:10;100179.53;;;12.76;80.76
35443;BME280;21561;55.654;37.592;2023-05-19T07:48:37;100170.78;;;12.87;80.42
35443;BME280;21561;55.654;37.592;2023-05-19T07:51:04;100168.97;;;12.93;80.00
35443;BME280;21561;55.654;37.592;2023-05-19T07:53:46;100174.19;;;12.95;80.23
35443;BME280;21561;55.654;37.592;2023-05-19T07:56:13;100168.97;;;12.98;80.37
35443;BME280;21561;55.654;37.592;2023-05-19T07:58:39;100174.09;;;13.04;80.54
35443;BME280;21561;55.654;37.592;2023-05-19T08:01:06;100174.16;;;13.01;80.62
35443;BME280;21561;55.654;37.592;2023-05-19T08:03:33;100169.81;;;12.98;81.23
35443;BME280;21561;55.654;37.592;2023-05-19T08:06:00;100174.09;;;13.04;79.94
35443;BME280;21561;55.654;37.592;2023-05-19T08:08:27;100167.06;;;13.15;78.18
35443;BME280;21561;55.654;37.592;2023-05-19T08:10:54;100166.94;;;13.28;77.35
35443;BME280;21561;55.654;37.592;2023-05-19T08:13:21;100173.78;;;13.41;76.49
35443;BME280;21561;55.654;37.592;2023-05-19T08:15:48;100173.69;;;13.49;75.54
35443;BME280;21561;55.654;37.592;2023-05-19T08:18:14;100178.97;;;13.44;73.42
35443;BME280;21561;55.654;37.592;2023-05-19T08:20:41;100179.88;;;13.42;73.93
35443;BME280;21561;55.654;37.592;2023-05-19T08:23:08;100182.38;;;13.49;74.41
35443;BME280;21561;55.654;37.592;2023-05-19T08:25:35;100180.56;;;13.58;73.49
35443;BME280;21561;55.654;37.592;2023-05-19T08:28:02;100183.16;;;13.61;72.72
35443;BME280;21561;55.654;37.592;2023-05-19T08:30:29;100179.53;;;13.72;72.38
35443;BME280;21561;55.654;37.592;2023-05-19T08:32:59;100185.69;;;13.67;70.05
35443;BME280;21561;55.654;37.592;2023-05-19T08:35:27;100183.13;;;13.62;68.26
35443;BME280;21561;55.654;37.592;2023-05-19T08:37:54;100179.59;;;13.69;68.04
35443;BME280;21561;55.654;37.592;2023-05-19T08:40:21;100169.88;;;13.82;66.33
35443;BME280;21561;55.654;37.592;2023-05-19T08:42:49;100178.56;;;13.80;64.01
35443;BME280;21561;55.654;37.592;2023-05-19T08:45:16;100164.69;;;13.79;63.32
35443;BME280;21561;55.654;37.592;2023-05-19T08:47:45;100166.28;;;13.89;63.56
35443;BME280;21561;55.654;37.592;2023-05-19T08:50:16;100155.88;;;13.89;60.52
35443;BME280;21561;55.654;37.592;2023-05-19T08:52:51;100157.34;;;14.09;61.91
35443;BME280;21561;55.654;37.592;2023-05-19T08:55:24;100154.59;;;14.21;60.16
35443;BME280;21561;55.654;37.592;2023-05-19T08:57:53;100140.41;;;14.39;58.79
35443;BME280;21561;55.654;37.592;2023-05-19T09:00:20;100128.94;;;14.48;57.33
35443;BME280;21561;55.654;37.592;2023-05-19T09:02:49;100097.59;;;14.48;54.96
35443;BME280;21561;55.654;37.592;2023-05-19T09:05:31;100073.59;;;14.24;53.14
35443;BME280;21561;55.654;37.592;2023-05-19T09:07:59;100102.63;;;14.03;53.23
35443;BME280;21561;55.654;37.592;2023-05-19T09:10:28;100092.03;;;14.13;53.41
35443;BME280;21561;55.654;37.592;2023-05-19T09:12:55;100073.53;;;14.30;52.04
35443;BME280;21561;55.654;37.592;2023-05-19T09:15:25;100074.88;;;14.53;51.72
35443;BME280;21561;55.654;37.592;2023-05-19T09:18:12;100095.25;;;14.87;53.20
35443;BME280;21561;55.654;37.592;2023-05-19T09:20:42;100062.63;;;15.10;51.27
35443;BME280;21561;55.654;37.592;2023-05-19T09:23:16;100046.38;;;15.37;51.01
35443;BME280;21561;55.654;37.592;2023-05-19T09:25:49;100030.94;;;15.67;49.78
35443;BME280;21561;55.654;37.592;2023-05-19T09:28:27;100031.91;;;16.02;49.81
35443;BME280;21561;55.654;37.592;2023-05-19T09:31:06;99971.06;;;15.94;47.62
35443;BME280;21561;55.654;37.592;2023-05-19T09:33:39;99988.75;;;15.82;48.06
35443;BME280;21561;55.654;37.592;2023-05-19T09:36:12;100004.31;;;15.89;47.99
35443;BME280;21561;55.654;37.592;2023-05-19T09:38:39;99945.13;;;15.84;46.66
35443;BME280;21561;55.654;37.592;2023-05-19T09:41:07;99940.00;;;15.78;46.29
35443;BME280;21561;55.654;37.592;2023-05-19T09:43:35;99984.22;;;15.89;47.17
35443;BME280;21561;55.654;37.592;2023-05-19T09:46:05;99871.38;;;15.67;44.89
35443;BME280;21561;55.654;37.592;2023-05-19T09:48:34;99888.22;;;15.54;44.63
35443;BME280;21561;55.654;37.592;2023-05-19T09:51:03;99856.09;;;15.49;43.50
35443;BME280;21561;55.654;37.592;2023-05-19T09:53:33;99898.47;;;15.63;45.28
35443;BME280;21561;55.654;37.592;2023-05-19T09:56:00;99899.44;;;15.59;44.49
35443;BME280;21561;55.654;37.592;2023-05-19T09:58:31;99886.50;;;15.92;44.28
35443;BME280;21561;55.654;37.592;2023-05-19T10:01:03;99859.56;;;16.52;43.02
35443;BME280;21561;55.654;37.592;2023-05-19T10:03:30;99781.72;;;16.87;41.82
35443;BME280;21561;55.654;37.592;2023-05-19T10:06:00;99751.59;;;17.01;41.83
35443;BME280;21561;55.654;37.592;2023-05-19T10:08:28;99734.97;;;17.28;41.09
35443;BME280;21561;55.654;37.592;2023-05-19T10:10:56;99724.28;;;17.85;40.47
35443;BME280;21561;55.654;37.592;2023-05-19T10:13:24;99628.22;;;18.04;38.65
35443;BME280;21561;55.654;37.592;2023-05-19T10:15:52;99600.44;;;18.21;38.53
35443;BME280;21561;55.654;37.592;2023-05-19T10:18:25;99619.44;;;18.49;38.51
35443;BME280;21561;55.654;37.592;2023-05-19T10:20:53;99553.16;;;18.43;37.85
35443;BME280;21561;55.654;37.592;2023-05-19T10:23:20;99576.06;;;18.39;37.96
35443;BME280;21561;55.654;37.592;2023-05-19T10:25:50;99573.09;;;18.48;37.77
35443;BME280;21561;55.654;37.592;2023-05-19T10:28:18;99620.13;;;18.75;37.89
35443;BME280;21561;55.654;37.592;2023-05-19T10:30:53;99584.13;;;18.99;37.35
35443;BME280;21561;55.654;37.592;2023-05-19T10:33:33;99560.38;;;19.21;36.94
35443;BME280;21561;55.654;37.592;2023-05-19T10:36:43;99537.03;;;19.53;37.36
35443;BME280;21561;55.654;37.592;2023-05-19T10:39:31;99500.59;;;19.06;36.36
35443;BME280;21561;55.654;37.592;2023-05-19T10:42:14;99529.38;;;18.88;37.00
35443;BME280;21561;55.654;37.592;2023-05-19T10:45:15;99557.66;;;18.39;37.59
35443;BME280;21561;55.654;37.592;2023-05-19T10:47:43;99623.94;;;18.02;38.24
35443;BME280;21561;55.654;37.592;2023-05-19T10:50:11;99613.03;;;17.89;37.99
35443;BME280;21561;55.654;37.592;2023-05-19T10:52:39;99628.09;;;17.84;37.96
35443;BME280;21561;55.654;37.592;2023-05-19T10:55:07;99678.16;;;17.78;39.28
35443;BME280;21561;55.654;37.592;2023-05-19T10:57:35;99695.78;;;17.74;38.53
35443;BME280;21561;55.654;37.592;2023-05-19T11:00:05;99675.44;;;17.81;38.64
35443;BME280;21561;55.654;37.592;2023-05-19T11:02:51;99696.88;;;17.68;38.72
35443;BME280;21561;55.654;37.592;2023-05-19T11:05:28;99682.94;;;17.66;39.01
35443;BME280;21561;55.654;37.592;2023-05-19T11:07:57;99733.84;;;17.62;39.15
35443;BME280;21561;55.654;37.592;2023-05-19T11:10:31;99740.03;;;17.85;39.00
35443;BME280;21561;55.654;37.592;2023-05-19T11:12:58;99688.50;;;17.82;37.95
35443;BME280;21561;55.654;37.592;2023-05-19T11:15:26;99698.75;;;17.90;38.47
35443;BME280;21561;55.654;37.592;2023-05-19T11:17:53;99672.75;;;17.82;37.87
35443;BME280;21561;55.654;37.592;2023-05-19T11:20:25;99624.97;;;17.72;37.13
35443;BME280;21561;55.654;37.592;2023-05-19T11:23:08;99630.06;;;17.77;37.81
35443;BME280;21561;55.654;37.592;2023-05-19T11:25:43;99636.19;;;18.01;37.58
35443;BME280;21561;55.654;37.592;2023-05-19T11:28:11;99598.75;;;17.72;36.95
35443;BME280;21561;55.654;37.592;2023-05-19T11:30:40;99644.63;;;17.62;37.97
35443;BME280;21561;55.654;37.592;2023-05-19T11:33:09;99675.78;;;17.71;38.09
35443;BME280;21561;55.654;37.592;2023-05-19T11:35:37;99632.41;;;17.61;37.33
35443;BME280;21561;55.654;37.592;2023-05-19T11:38:05;99626.47;;;17.56;37.32
35443;BME280;21561;55.654;37.592;2023-05-19T11:40:32;99664.41;;;17.71;37.56
35443;BME280;21561;55.654;37.592;2023-05-19T11:42:59;99654.13;;;17.90;37.67
35443;BME280;21561;55.654;37.592;2023-05-19T11:45:28;99625.56;;;17.81;36.62
35443;BME280;21561;55.654;37.592;2023-05-19T11:48:01;99639.28;;;17.89;36.98
35443;BME280;21561;55.654;37.592;2023-05-19T11:50:31;99603.34;;;17.91;36.31
35443;BME280;21561;55.654;37.592;2023-05-19T11:52:59;99592.72;;;17.94;36.26
35443;BME280;21561;55.654;37.592;2023-05-19T11:55:29;99594.94;;;18.05;36.17
35443;BME280;21561;55.654;37.592;2023-05-19T11:57:57;99570.34;;;18.07;35.46
35443;BME280;21561;55.654;37.592;2023-05-19T12:00:28;99556.47;;;18.04;35.79
35443;BME280;21561;55.654;37.592;2023-05-19T12:02:56;99554.59;;;17.84;35.89
35443;BME280;21561;55.654;37.592;2023-05-19T12:05:25;99587.16;;;17.78;36.84
35443;BME280;21561;55.654;37.592;2023-05-19T12:07:53;99596.91;;;17.74;36.32
35443;BME280;21561;55.654;37.592;2023-05-19T12:10:27;99590.09;;;17.94;36.09
35443;BME280;21561;55.654;37.592;2023-05-19T12:12:54;99601.63;;;17.90;36.69
35443;BME280;21561;55.654;37.592;2023-05-19T12:15:23;99598.97;;;18.13;36.48
35443;BME280;21561;55.654;37.592;2023-05-19T12:17:58;99542.16;;;18.33;35.52
35443;BME280;21561;55.654;37.592;2023-05-19T12:20:27;99508.69;;;18.38;34.65
35443;BME280;21561;55.654;37.592;2023-05-19T12:22:54;99475.72;;;18.31;34.09
35443;BME280;21561;55.654;37.592;2023-05-19T12:25:22;99491.25;;;18.15;34.95
35443;BME280;21561;55.654;37.592;2023-05-19T12:27:49;99497.13;;;18.22;34.38
35443;BME280;21561;55.654;37.592;2023-05-19T12:30:26;99462.97;;;18.22;34.05
35443;BME280;21561;55.654;37.592;2023-05-19T12:32:57;99458.72;;;17.97;34.11
35443;BME280;21561;55.654;37.592;2023-05-19T12:35:31;99454.25;;;17.99;34.09
35443;BME280;21561;55.654;37.592;2023-05-19T12:38:10;99452.19;;;18.07;33.29
35443;BME280;21561;55.654;37.592;2023-05-19T12:40:37;99433.13;;;18.02;33.01
35443;BME280;21561;55.654;37.592;2023-05-19T12:43:17;99408.63;;;18.24;32.68
35443;BME280;21561;55.654;37.592;2023-05-19T12:45:44;99360.16;;;17.90;32.41
35443;BME280;21561;55.654;37.592;2023-05-19T12:48:11;99332.41;;;17.83;32.05
35443;BME280;21561;55.654;37.592;2023-05-19T12:50:39;99359.66;;;17.80;32.52
35443;BME280;21561;55.654;37.592;2023-05-19T12:53:13;99356.34;;;17.97;32.08
35443;BME280;21561;55.654;37.592;2023-05-19T12:55:41;99354.31;;;18.04;32.19
35443;BME280;21561;55.654;37.592;2023-05-19T12:58:09;99320.97;;;18.06;31.56
35443;BME280;21561;55.654;37.592;2023-05-19T13:00:40;99312.75;;;18.13;30.87
35443;BME280;21561;55.654;37.592;2023-05-19T13:03:19;99275.34;;;18.08;31.28
35443;BME280;21561;55.654;37.592;2023-05-19T13:05:48;99285.09;;;17.86;31.70
35443;BME280;21561;55.654;37.592;2023-05-19T13:08:18;99298.75;;;17.72;31.85
35443;BME280;21561;55.654;37.592;2023-05-19T13:10:46;99295.34;;;17.48;31.59